Time;durP1;ratioP1;P1;durP2;ratioP2;P2;SDS_P1;SDS_P2;PMS_P1;PMS_P2;Temp;Humidity;BMP_temperature;BMP_pressure;BME280_temperature;BME280_humidity;BME280_pressure;Samples;Min_cycle;Max_cycle;Signal;HPM_P1;HPM_P2
2021/08/05 00:00:42;;;;;;;12.63;11.40;;;16.30;99.90;;;;;;4966938;28;20022;-86
2021/08/05 00:03:08;;;;;;;12.48;11.27;;;16.30;99.90;;;;;;4950387;29;20473;-87
2021/08/05 00:05:34;;;;;;;12.93;11.50;;;16.30;99.90;;;;;;4951502;29;20026;-86
2021/08/05 00:08:00;;;;;;;11.70;10.52;;;16.30;99.90;;;;;;4950545;28;20063;-86
2021/08/05 00:10:25;;;;;;;15.80;10.88;;;16.30;99.90;;;;;;4969247;28;20046;-85
2021/08/05 00:12:51;;;;;;;12.43;10.85;;;16.30;99.90;;;;;;4971214;28;20070;-86
2021/08/05 00:15:17;;;;;;;11.10;10.00;;;16.30;99.90;;;;;;4969754;28;20026;-86
2021/08/05 00:17:43;;;;;;;10.43;9.38;;;16.40;99.90;;;;;;4970294;28;20066;-86
2021/08/05 00:20:09;;;;;;;10.85;9.75;;;16.40;99.90;;;;;;4970610;28;20034;-86
2021/08/05 00:22:35;;;;;;;13.32;9.68;;;16.40;99.90;;;;;;4967850;28;20077;-87
2021/08/05 00:25:00;;;;;;;10.82;9.50;;;16.40;99.90;;;;;;4970119;28;20054;-86
2021/08/05 00:27:26;;;;;;;11.82;10.05;;;16.40;99.90;;;;;;4972477;28;20088;-86
2021/08/05 00:29:52;;;;;;;9.77;8.77;;;16.40;99.90;;;;;;4972935;28;20064;-86
2021/08/05 00:32:17;;;;;;;11.50;9.70;;;16.40;99.90;;;;;;4973847;28;20045;-87
2021/08/05 00:34:43;;;;;;;10.45;9.55;;;16.40;99.90;;;;;;4973996;28;20042;-86
2021/08/05 00:37:08;;;;;;;13.25;9.40;;;16.40;99.90;;;;;;4971753;28;20026;-86
2021/08/05 00:39:34;;;;;;;10.60;9.57;;;16.40;99.90;;;;;;4973659;28;20050;-86
2021/08/05 00:42:00;;;;;;;11.55;10.00;;;16.40;99.90;;;;;;4972481;28;20472;-87
2021/08/05 00:44:25;;;;;;;8.43;7.22;;;16.50;99.90;;;;;;4972506;28;20114;-87
2021/08/05 00:46:51;;;;;;;8.88;8.07;;;16.40;99.90;;;;;;4973917;28;20023;-86
2021/08/05 00:49:17;;;;;;;11.45;8.43;;;16.40;99.90;;;;;;4973618;28;20031;-86
2021/08/05 00:51:43;;;;;;;9.45;8.18;;;16.40;99.90;;;;;;4973761;28;20473;-86
2021/08/05 00:54:09;;;;;;;9.35;8.45;;;16.50;99.90;;;;;;4972696;28;20456;-86
2021/08/05 00:56:35;;;;;;;8.93;8.02;;;16.40;99.90;;;;;;4973731;28;20019;-86
2021/08/05 00:59:01;;;;;;;10.38;8.63;;;16.40;99.90;;;;;;4972379;28;20015;-86
2021/08/05 01:01:41;;;;;;;9.60;8.60;;;16.40;99.90;;;;;;4988526;28;20023;-87
2021/08/05 01:04:08;;;;;;;10.40;9.40;;;16.40;99.90;;;;;;4972024;28;20029;-86
2021/08/05 01:06:51;;;;;;;13.30;10.35;;;16.40;99.90;;;;;;4972792;28;20023;-86
2021/08/05 01:09:19;;;;;;;;;;;16.40;99.90;;;;;;4963973;28;20038;-85
2021/08/05 01:11:52;;;;;;;12.52;10.82;;;16.40;99.90;;;;;;4969212;28;19910;-86
2021/08/05 01:14:20;;;;;;;12.77;10.57;;;16.30;99.90;;;;;;4954458;29;20027;-85
2021/08/05 01:16:47;;;;;;;12.90;10.77;;;16.40;99.90;;;;;;4954187;29;20059;-85
2021/08/05 01:19:30;;;;;;;14.07;12.60;;;16.30;99.90;;;;;;4954056;29;20039;-86
2021/08/05 01:22:00;;;;;;;15.63;13.82;;;16.30;99.90;;;;;;4953733;29;20378;-87
2021/08/05 01:24:29;;;;;;;14.52;13.05;;;16.30;99.90;;;;;;4952650;29;20088;-87
2021/08/05 01:27:00;;;;;;;17.45;13.60;;;16.20;99.90;;;;;;4952947;29;20504;-86
2021/08/05 01:29:27;;;;;;;16.40;13.30;;;16.20;99.90;;;;;;4952643;29;20016;-86
2021/08/05 01:31:54;;;;;;;16.27;14.52;;;16.20;99.90;;;;;;4953649;29;20023;-86
2021/08/05 01:34:21;;;;;;;18.00;13.68;;;16.10;99.90;;;;;;4952497;29;20178;-86
2021/08/05 01:36:48;;;;;;;14.77;13.25;;;16.10;99.90;;;;;;4958897;28;20038;-86
2021/08/05 01:39:14;;;;;;;18.45;14.82;;;16.10;99.90;;;;;;4985948;28;20045;-86
2021/08/05 01:41:41;;;;;;;16.52;13.13;;;16.10;99.90;;;;;;4971959;28;20038;-86
2021/08/05 01:44:08;;;;;;;14.60;13.13;;;16.10;99.90;;;;;;4972570;28;20049;-86
2021/08/05 01:46:35;;;;;;;15.43;13.40;;;16.00;99.90;;;;;;4972816;28;20042;-86
2021/08/05 01:49:01;;;;;;;15.82;14.02;;;16.10;99.90;;;;;;4972886;28;20077;-86
2021/08/05 01:51:28;;;;;;;16.83;14.50;;;16.10;99.90;;;;;;4972809;28;20050;-86
2021/08/05 01:53:54;;;;;;;16.42;14.45;;;16.10;99.90;;;;;;4972729;28;20038;-86
2021/08/05 01:56:21;;;;;;;16.45;13.80;;;16.10;99.90;;;;;;4972682;28;20465;-86
2021/08/05 01:58:47;;;;;;;16.02;13.85;;;16.10;99.90;;;;;;4973022;28;20117;-86
2021/08/05 02:01:15;;;;;;;16.65;13.45;;;16.00;99.90;;;;;;4971344;28;20480;-86
2021/08/05 02:03:45;;;;;;;16.75;14.98;;;16.00;99.90;;;;;;4972768;28;20064;-86
2021/08/05 02:06:16;;;;;;;17.55;13.70;;;16.00;99.90;;;;;;4972437;28;20109;-86
2021/08/05 02:08:50;;;;;;;17.13;14.18;;;16.00;99.90;;;;;;4953323;28;20063;-87
2021/08/05 02:11:17;;;;;;;19.00;14.75;;;16.00;99.90;;;;;;4983918;28;20084;-87
2021/08/05 02:13:44;;;;;;;18.70;14.65;;;16.00;99.90;;;;;;4972485;28;20035;-87
2021/08/05 02:16:17;;;;;;;15.43;12.90;;;16.00;99.90;;;;;;4971585;28;20030;-86
2021/08/05 02:18:45;;;;;;;16.13;13.50;;;16.00;99.90;;;;;;5055845;28;20015;-86
2021/08/05 02:21:14;;;;;;;16.58;13.40;;;16.00;99.90;;;;;;4970990;28;20038;-86
2021/08/05 02:23:41;;;;;;;14.80;12.93;;;16.00;99.90;;;;;;4972060;28;20035;-86
2021/08/05 02:26:08;;;;;;;16.58;12.95;;;16.00;99.90;;;;;;4971217;28;20483;-86
2021/08/05 02:28:35;;;;;;;16.42;13.13;;;16.00;99.90;;;;;;4972220;28;20031;-88
2021/08/05 02:31:02;;;;;;;16.08;12.55;;;16.00;99.90;;;;;;4971052;28;20045;-86
2021/08/05 02:33:30;;;;;;;15.27;12.52;;;16.00;99.90;;;;;;4971253;28;20031;-86
2021/08/05 02:35:56;;;;;;;15.68;11.68;;;16.00;99.90;;;;;;4972011;28;20034;-87
2021/08/05 02:38:22;;;;;;;15.88;11.90;;;16.00;99.90;;;;;;4955147;28;20062;-86
2021/08/05 02:40:50;;;;;;;19.88;11.45;;;16.00;99.90;;;;;;4952832;29;20469;-86
2021/08/05 02:43:16;;;;;;;11.32;9.93;;;16.00;99.90;;;;;;4952781;29;20041;-86
2021/08/05 02:45:45;;;;;;;14.13;10.05;;;16.00;99.90;;;;;;4950806;29;20015;-86
2021/08/05 02:48:12;;;;;;;12.48;11.07;;;16.00;99.90;;;;;;4952900;29;20396;-85
2021/08/05 02:50:38;;;;;;;13.82;9.65;;;16.00;99.90;;;;;;4951988;28;20023;-85
2021/08/05 02:53:05;;;;;;;12.48;9.35;;;16.00;99.90;;;;;;4953647;28;20035;-85
2021/08/05 02:55:32;;;;;;;11.30;10.00;;;16.00;99.90;;;;;;4970737;28;20072;-86
2021/08/05 02:58:01;;;;;;;13.75;9.98;;;16.00;99.90;;;;;;4986896;28;20479;-87
2021/08/05 03:00:27;;;;;;;9.88;8.88;;;15.90;99.90;;;;;;4971034;28;20015;-88
2021/08/05 03:02:53;;;;;;;14.82;10.60;;;15.90;99.90;;;;;;4971465;28;20045;-86
2021/08/05 03:05:19;;;;;;;12.05;10.68;;;15.90;99.90;;;;;;4971087;28;20033;-88
2021/08/05 03:07:44;;;;;;;15.10;11.45;;;15.90;99.90;;;;;;4971592;28;20034;-89
2021/08/05 03:10:14;;;;;;;12.95;10.48;;;15.90;99.90;;;;;;4984687;28;20019;-88
2021/08/05 03:12:40;;;;;;;12.00;10.77;;;15.80;99.90;;;;;;4975636;28;20468;-89
2021/08/05 03:15:07;;;;;;;15.95;12.00;;;15.80;99.90;;;;;;4966473;28;20115;-86
2021/08/05 03:17:32;;;;;;;15.35;12.68;;;15.80;99.90;;;;;;4966580;28;20031;-87
2021/08/05 03:19:58;;;;;;;14.23;12.30;;;15.80;99.90;;;;;;4951534;29;20027;-87
2021/08/05 03:22:24;;;;;;;14.43;11.65;;;15.80;99.90;;;;;;4951734;28;20043;-87
2021/08/05 03:24:49;;;;;;;13.80;10.98;;;15.80;99.90;;;;;;4981383;28;20026;-87
2021/08/05 03:27:15;;;;;;;15.55;13.07;;;15.70;99.90;;;;;;4970052;28;20019;-87
2021/08/05 03:29:41;;;;;;;17.25;12.75;;;15.80;99.90;;;;;;4969816;28;20023;-87
2021/08/05 03:32:07;;;;;;;15.35;13.30;;;15.70;99.90;;;;;;4969800;28;20031;-87
2021/08/05 03:34:33;;;;;;;14.32;11.80;;;15.60;99.90;;;;;;4985446;28;20025;-87
2021/08/05 03:36:59;;;;;;;15.95;12.48;;;15.60;99.90;;;;;;4969796;28;20469;-88
2021/08/05 03:39:24;;;;;;;17.52;13.73;;;15.60;99.90;;;;;;4984830;28;20126;-89
2021/08/05 03:41:51;;;;;;;16.05;12.40;;;15.60;99.90;;;;;;4971001;28;20627;-89
2021/08/05 03:44:17;;;;;;;20.33;13.43;;;15.60;99.90;;;;;;4966657;28;20023;-89
2021/08/05 03:46:43;;;;;;;17.38;13.55;;;15.50;99.90;;;;;;4951966;29;20076;-89
2021/08/05 03:49:09;;;;;;;19.67;13.82;;;15.50;99.90;;;;;;4951983;29;20015;-87
2021/08/05 03:51:35;;;;;;;19.05;13.10;;;15.50;99.90;;;;;;4950618;29;20031;-87
2021/08/05 03:54:00;;;;;;;19.05;13.43;;;15.50;99.90;;;;;;4952010;29;20072;-87
2021/08/05 03:56:26;;;;;;;17.55;13.48;;;15.40;99.90;;;;;;4951759;29;20032;-87
2021/08/05 03:58:52;;;;;;;14.85;12.48;;;15.40;99.90;;;;;;4950845;29;20026;-86
2021/08/05 04:01:18;;;;;;;19.17;13.90;;;15.40;99.90;;;;;;4951827;28;20027;-86
2021/08/05 04:03:43;;;;;;;20.23;12.57;;;15.30;99.90;;;;;;4955084;29;20035;-86
2021/08/05 04:06:10;;;;;;;14.80;13.00;;;15.30;99.90;;;;;;4954232;29;20023;-86
2021/08/05 04:08:36;;;;;;;17.15;12.27;;;15.30;99.90;;;;;;4954111;29;20465;-86
2021/08/05 04:11:02;;;;;;;17.75;13.30;;;15.30;99.90;;;;;;4954856;28;20034;-85
2021/08/05 04:13:28;;;;;;;18.10;14.13;;;15.40;99.90;;;;;;4955181;29;20378;-86
2021/08/05 04:15:53;;;;;;;16.50;13.02;;;15.40;99.90;;;;;;4953711;29;20101;-86
2021/08/05 04:18:19;;;;;;;14.93;11.52;;;15.40;99.90;;;;;;4955136;29;20094;-87
2021/08/05 04:20:45;;;;;;;16.42;13.02;;;15.40;99.90;;;;;;4954082;29;20025;-86
2021/08/05 04:23:10;;;;;;;13.80;11.95;;;15.40;99.90;;;;;;4957979;28;20038;-87
2021/08/05 04:25:36;;;;;;;19.08;13.38;;;15.40;99.90;;;;;;4974578;28;20023;-87
2021/08/05 04:28:02;;;;;;;14.63;12.85;;;15.40;99.90;;;;;;4989331;28;20038;-87
2021/08/05 04:30:28;;;;;;;17.55;13.30;;;15.40;99.90;;;;;;4974106;28;20068;-87
2021/08/05 04:32:54;;;;;;;15.65;13.80;;;15.40;99.90;;;;;;4972472;28;20602;-87
2021/08/05 04:35:19;;;;;;;19.10;14.45;;;15.40;99.90;;;;;;4973712;28;20023;-86
2021/08/05 04:37:54;;;;;;;15.25;12.65;;;15.40;99.90;;;;;;4973103;28;20034;-87
2021/08/05 04:40:21;;;;;;;17.15;14.10;;;15.40;99.90;;;;;;4972572;28;20508;-86
2021/08/05 04:42:47;;;;;;;17.38;14.18;;;15.40;99.90;;;;;;4973624;28;20388;-87
2021/08/05 04:45:13;;;;;;;15.70;13.00;;;15.30;99.90;;;;;;4988625;28;20030;-87
2021/08/05 04:47:56;;;;;;;19.58;14.23;;;15.30;99.90;;;;;;4973585;28;20123;-86
2021/08/05 04:50:24;;;;;;;16.27;13.50;;;15.30;99.90;;;;;;4973554;28;20035;-87
2021/08/05 04:52:50;;;;;;;18.13;14.32;;;15.30;99.90;;;;;;4973445;28;20019;-87
2021/08/05 04:55:16;;;;;;;22.65;14.38;;;15.30;99.90;;;;;;4973684;28;20019;-87
2021/08/05 04:57:50;;;;;;;17.25;13.25;;;15.20;99.90;;;;;;4988574;28;20023;-87
2021/08/05 05:00:20;;;;;;;15.82;12.48;;;15.20;99.90;;;;;;4973210;28;20029;-87
2021/08/05 05:02:46;;;;;;;16.10;12.35;;;15.20;99.90;;;;;;4971977;28;20031;-88
2021/08/05 05:05:11;;;;;;;15.10;11.52;;;15.20;99.90;;;;;;4954202;29;20035;-86
2021/08/05 05:07:37;;;;;;;15.80;12.18;;;15.20;99.90;;;;;;4969197;28;20039;-87
2021/08/05 05:10:03;;;;;;;12.93;10.80;;;15.20;99.90;;;;;;4964660;28;20030;-87
2021/08/05 05:12:29;;;;;;;13.82;11.02;;;15.20;99.90;;;;;;4987428;28;20123;-88
2021/08/05 05:14:54;;;;;;;18.65;11.68;;;15.20;99.90;;;;;;4987887;28;20059;-87
2021/08/05 05:17:20;;;;;;;12.98;10.13;;;15.20;99.90;;;;;;4987685;28;20121;-87
2021/08/05 05:19:46;;;;;;;13.57;9.98;;;15.10;99.90;;;;;;4973224;28;20108;-87
2021/08/05 05:22:11;;;;;;;12.95;9.43;;;15.20;99.90;;;;;;4972774;28;20099;-86
2021/08/05 05:24:37;;;;;;;12.68;10.32;;;15.10;99.90;;;;;;4972547;28;20050;-87
2021/08/05 05:27:03;;;;;;;14.40;10.82;;;15.10;99.90;;;;;;4973160;28;20448;-87
2021/08/05 05:29:28;;;;;;;12.07;9.85;;;15.10;99.90;;;;;;4969278;28;20031;-86
2021/08/05 05:31:54;;;;;;;10.32;8.18;;;15.20;99.90;;;;;;4997281;28;20457;-86
2021/08/05 05:34:20;;;;;;;10.70;9.25;;;15.20;99.90;;;;;;4963131;28;20031;-86
2021/08/05 05:36:47;;;;;;;8.55;7.65;;;15.20;99.90;;;;;;4973742;28;20063;-87
2021/08/05 05:39:13;;;;;;;8.93;7.32;;;15.20;99.90;;;;;;4979128;28;20062;-86
2021/08/05 05:41:38;;;;;;;8.70;7.60;;;15.20;99.90;;;;;;4977887;28;20055;-86
2021/08/05 05:44:04;;;;;;;9.20;7.93;;;15.20;99.90;;;;;;4976222;28;20037;-86
2021/08/05 05:46:31;;;;;;;8.88;7.97;;;15.20;99.90;;;;;;4974329;28;20031;-87
2021/08/05 05:48:56;;;;;;;8.40;7.50;;;15.30;99.90;;;;;;4971744;28;20045;-85
2021/08/05 05:51:22;;;;;;;8.18;7.35;;;15.30;99.90;;;;;;4968199;28;20121;-83
2021/08/05 05:53:48;;;;;;;7.25;6.55;;;15.30;99.90;;;;;;4967085;28;20035;-88
2021/08/05 05:56:14;;;;;;;8.52;7.35;;;15.30;99.90;;;;;;4966804;28;20142;-85
2021/08/05 05:58:40;;;;;;;7.35;6.65;;;15.30;99.90;;;;;;4978510;28;20072;-86
2021/08/05 06:01:06;;;;;;;7.93;7.18;;;15.40;99.90;;;;;;4981407;28;20435;-87
2021/08/05 06:03:31;;;;;;;8.10;7.30;;;15.40;99.90;;;;;;4967808;28;20100;-86
2021/08/05 06:05:57;;;;;;;7.78;6.97;;;15.40;99.90;;;;;;4980431;28;20110;-84
2021/08/05 06:08:23;;;;;;;8.50;7.63;;;15.40;99.90;;;;;;4966228;28;20071;-84
2021/08/05 06:10:51;;;;;;;8.48;7.57;;;15.50;99.90;;;;;;4981550;28;20023;-83
2021/08/05 06:13:16;;;;;;;9.30;8.40;;;15.50;99.90;;;;;;4967003;28;20077;-84
2021/08/05 06:15:45;;;;;;;8.65;7.85;;;15.50;99.90;;;;;;4965552;28;20066;-82
2021/08/05 06:18:10;;;;;;;9.32;8.23;;;15.50;99.90;;;;;;4959488;28;20027;-83
2021/08/05 06:20:36;;;;;;;8.43;7.47;;;15.60;99.90;;;;;;4979559;28;20126;-84
2021/08/05 06:23:03;;;;;;;8.88;8.05;;;15.60;99.90;;;;;;4960821;28;20035;-83
2021/08/05 06:25:32;;;;;;;7.78;6.95;;;15.60;99.90;;;;;;4961135;28;20506;-83
2021/08/05 06:27:57;;;;;;;7.22;6.53;;;15.60;99.90;;;;;;4960250;28;20015;-84
2021/08/05 06:30:23;;;;;;;7.25;6.55;;;15.60;99.90;;;;;;4948005;28;20113;-83
2021/08/05 06:32:50;;;;;;;8.20;7.40;;;15.60;99.90;;;;;;4971035;28;20027;-82
2021/08/05 06:35:16;;;;;;;8.75;7.88;;;15.60;99.90;;;;;;4952321;28;20047;-84
2021/08/05 06:37:42;;;;;;;8.77;7.85;;;15.70;99.90;;;;;;4963319;28;20034;-83
2021/08/05 06:40:08;;;;;;;8.60;7.78;;;15.60;99.90;;;;;;4964483;28;20047;-86
2021/08/05 06:42:35;;;;;;;7.30;6.60;;;15.70;99.90;;;;;;4981605;28;20084;-84
2021/08/05 06:45:01;;;;;;;8.02;7.22;;;15.60;99.90;;;;;;4975608;28;20043;-85
2021/08/05 06:47:27;;;;;;;8.88;7.55;;;15.70;99.90;;;;;;4965624;28;20062;-84
2021/08/05 06:49:52;;;;;;;8.95;7.88;;;15.70;99.90;;;;;;4948657;28;20124;-84
2021/08/05 06:52:18;;;;;;;8.70;7.80;;;15.70;99.90;;;;;;4973450;28;20021;-85
2021/08/05 06:54:44;;;;;;;9.23;8.25;;;15.70;99.90;;;;;;4978997;28;20051;-88
2021/08/05 06:57:09;;;;;;;8.50;7.60;;;15.70;99.90;;;;;;4965332;28;20034;-86
2021/08/05 06:59:35;;;;;;;8.52;7.68;;;15.70;99.90;;;;;;4961065;28;20623;-86
2021/08/05 07:02:01;;;;;;;7.72;7.03;;;15.60;99.90;;;;;;4970584;28;20552;-85
2021/08/05 07:04:26;;;;;;;6.95;6.28;;;15.60;99.90;;;;;;4984410;28;20038;-84
2021/08/05 07:06:52;;;;;;;8.57;6.53;;;15.60;99.90;;;;;;4981234;28;20125;-84
2021/08/05 07:09:18;;;;;;;9.60;7.88;;;15.60;99.90;;;;;;4984185;28;20047;-85
2021/08/05 07:11:43;;;;;;;9.80;7.90;;;15.60;99.90;;;;;;4981680;28;20038;-85
2021/08/05 07:14:10;;;;;;;9.25;8.35;;;15.70;99.90;;;;;;4957187;28;20031;-85
2021/08/05 07:16:36;;;;;;;8.07;7.38;;;15.70;99.90;;;;;;4958246;28;20019;-86
2021/08/05 07:19:01;;;;;;;8.35;7.55;;;15.80;99.90;;;;;;4963783;28;20023;-85
2021/08/05 07:21:27;;;;;;;7.53;6.80;;;15.80;99.90;;;;;;4979842;28;20157;-86
2021/08/05 07:23:53;;;;;;;6.90;6.20;;;15.80;99.90;;;;;;4969414;28;20122;-85
2021/08/05 07:26:19;;;;;;;8.10;7.28;;;15.80;99.90;;;;;;4964826;28;20046;-85
2021/08/05 07:28:45;;;;;;;8.77;7.85;;;15.80;99.90;;;;;;4963792;28;20028;-85
2021/08/05 07:31:10;;;;;;;7.88;6.82;;;15.90;99.90;;;;;;4960018;28;20502;-85
2021/08/05 07:33:36;;;;;;;7.40;6.70;;;15.80;99.90;;;;;;4965665;28;20508;-84
2021/08/05 07:36:02;;;;;;;6.78;6.18;;;15.80;99.90;;;;;;4966886;28;20063;-85
2021/08/05 07:38:28;;;;;;;7.85;6.85;;;15.80;99.90;;;;;;4968011;28;20035;-84
2021/08/05 07:40:53;;;;;;;8.65;7.75;;;15.80;99.90;;;;;;4966494;28;20035;-85
2021/08/05 07:43:19;;;;;;;8.00;7.30;;;15.80;99.90;;;;;;4966059;28;20477;-84
2021/08/05 07:45:45;;;;;;;8.57;7.80;;;15.80;99.90;;;;;;4962782;28;20031;-85
2021/08/05 07:48:10;;;;;;;7.85;7.13;;;15.80;99.90;;;;;;4978940;28;20084;-85
2021/08/05 07:50:36;;;;;;;9.43;8.38;;;15.80;99.90;;;;;;4983955;28;20191;-85
2021/08/05 07:53:03;;;;;;;9.32;7.82;;;15.80;99.90;;;;;;4994367;28;20571;-85
2021/08/05 07:55:30;;;;;;;9.20;8.15;;;15.70;99.90;;;;;;4963399;28;20035;-85
2021/08/05 07:57:56;;;;;;;8.75;7.90;;;15.80;99.90;;;;;;4963178;28;20024;-85
2021/08/05 08:00:21;;;;;;;10.75;8.82;;;15.70;99.90;;;;;;4964085;28;20046;-85
2021/08/05 08:02:47;;;;;;;11.65;9.02;;;15.80;99.90;;;;;;4968180;28;20039;-84
2021/08/05 08:05:14;;;;;;;9.70;8.70;;;15.80;99.90;;;;;;4983399;28;20089;-84
2021/08/05 08:07:41;;;;;;;10.85;9.52;;;15.80;99.90;;;;;;4982784;28;20080;-84
2021/08/05 08:10:07;;;;;;;13.38;11.13;;;15.80;99.90;;;;;;4984080;28;20042;-87
2021/08/05 08:12:34;;;;;;;11.88;10.38;;;15.80;99.90;;;;;;4983694;28;20379;-85
2021/08/05 08:15:00;;;;;;;12.60;10.20;;;15.80;99.90;;;;;;4968542;28;20053;-87
2021/08/05 08:17:25;;;;;;;13.93;10.23;;;15.80;99.90;;;;;;4973969;28;20023;-86
2021/08/05 08:19:51;;;;;;;16.02;11.65;;;15.80;99.90;;;;;;4948659;28;20062;-85
2021/08/05 08:22:17;;;;;;;14.23;12.45;;;15.80;99.90;;;;;;4955671;28;20484;-85
2021/08/05 08:24:43;;;;;;;13.75;12.23;;;15.80;99.90;;;;;;4976509;28;20062;-85
2021/08/05 08:27:08;;;;;;;16.95;14.15;;;15.80;99.90;;;;;;4968081;28;20063;-86
2021/08/05 08:29:34;;;;;;;17.25;13.80;;;15.90;99.90;;;;;;4966412;28;20263;-86
2021/08/05 08:32:00;;;;;;;15.20;12.35;;;15.90;99.90;;;;;;4961622;28;20039;-86
2021/08/05 08:34:25;;;;;;;16.70;14.13;;;15.80;99.90;;;;;;4953289;28;20096;-88
2021/08/05 08:36:51;;;;;;;14.95;13.23;;;15.80;99.90;;;;;;4975814;28;20050;-88
2021/08/05 08:39:18;;;;;;;13.95;12.30;;;15.80;99.90;;;;;;4976160;28;20027;-85
2021/08/05 08:41:44;;;;;;;14.90;12.40;;;15.80;99.90;;;;;;4972174;28;20042;-86
2021/08/05 08:44:12;;;;;;;16.65;14.48;;;15.70;99.90;;;;;;4973585;28;20031;-86
2021/08/05 08:46:38;;;;;;;15.82;13.07;;;15.80;99.90;;;;;;4948457;28;20039;-87
2021/08/05 08:49:04;;;;;;;16.92;13.68;;;15.70;99.90;;;;;;4965689;28;20034;-86
2021/08/05 08:51:31;;;;;;;18.77;14.80;;;15.80;99.90;;;;;;4952078;28;20089;-86
2021/08/05 08:54:03;;;;;;;15.52;13.45;;;15.80;99.90;;;;;;4969481;28;20029;-85
2021/08/05 08:56:30;;;;;;;13.77;12.10;;;15.80;99.90;;;;;;4971298;28;20142;-85
2021/08/05 08:58:58;;;;;;;16.38;14.20;;;15.70;99.90;;;;;;4971023;28;20452;-85
2021/08/05 09:01:29;;;;;;;16.70;14.90;;;15.60;99.90;;;;;;4984614;28;20444;-83
2021/08/05 09:03:54;;;;;;;17.27;13.73;;;15.60;99.90;;;;;;4970570;28;20508;-83
2021/08/05 09:06:20;;;;;;;19.48;14.73;;;15.60;99.90;;;;;;4966687;28;20134;-83
2021/08/05 09:08:46;;;;;;;19.35;15.32;;;15.60;99.90;;;;;;4951081;28;20024;-84
2021/08/05 09:11:12;;;;;;;18.30;14.48;;;15.60;99.90;;;;;;4967032;28;20039;-85
2021/08/05 09:13:38;;;;;;;16.00;13.73;;;15.60;99.90;;;;;;4967095;28;20085;-86
2021/08/05 09:16:29;;;;;;;16.38;14.45;;;15.60;99.90;;;;;;4952193;28;20031;-85
2021/08/05 09:19:06;;;;;;;17.15;14.07;;;15.60;99.90;;;;;;4966648;28;20070;-84
2021/08/05 09:21:32;;;;;;;15.07;13.43;;;15.60;99.90;;;;;;4948879;28;20043;-85
2021/08/05 09:24:12;;;;;;;18.85;14.32;;;15.60;99.90;;;;;;4969169;28;20587;-86
2021/08/05 09:26:47;;;;;;;14.63;12.18;;;15.60;99.90;;;;;;4969308;28;20065;-86
2021/08/05 09:29:16;;;;;;;16.58;12.98;;;15.50;99.90;;;;;;4958690;28;20049;-85
2021/08/05 09:31:51;;;;;;;14.85;13.30;;;15.60;99.90;;;;;;4985185;28;20038;-84
2021/08/05 09:34:19;;;;;;;15.85;13.20;;;15.60;99.90;;;;;;4985933;28;20165;-84
2021/08/05 09:36:47;;;;;;;15.40;13.80;;;15.70;99.90;;;;;;4959827;28;20047;-84
2021/08/05 09:39:24;;;;;;;13.13;11.68;;;15.70;99.90;;;;;;4950488;28;20085;-84
2021/08/05 09:41:56;;;;;;;12.80;11.32;;;15.70;99.90;;;;;;4964828;28;20039;-84
2021/08/05 09:44:22;;;;;;;11.93;10.65;;;15.70;99.90;;;;;;4974470;28;20473;-85
2021/08/05 09:47:01;;;;;;;11.85;9.98;;;15.70;99.90;;;;;;4965538;28;20035;-85
2021/08/05 09:49:29;;;;;;;10.80;9.80;;;15.70;99.90;;;;;;4980627;28;20068;-84
2021/08/05 09:51:59;;;;;;;11.10;9.68;;;15.80;99.90;;;;;;4968077;28;20042;-85
2021/08/05 09:54:42;;;;;;;9.05;7.97;;;15.90;99.90;;;;;;4985201;28;20031;-85
2021/08/05 09:57:11;;;;;;;9.90;8.82;;;15.90;99.90;;;;;;4966181;28;20489;-84
2021/08/05 10:00:01;;;;;;;9.82;8.82;;;15.90;99.90;;;;;;4980997;28;20385;-85
2021/08/05 10:02:41;;;;;;;9.88;8.38;;;15.90;99.90;;;;;;4943901;28;20501;-86
2021/08/05 10:05:18;;;;;;;9.77;8.70;;;15.90;99.90;;;;;;4966644;28;20026;-86
2021/08/05 10:07:48;;;;;;;8.70;7.90;;;15.90;99.90;;;;;;4968344;28;20038;-85
2021/08/05 10:10:16;;;;;;;10.40;9.32;;;15.80;99.90;;;;;;4971079;28;20030;-85
2021/08/05 10:12:57;;;;;;;8.80;7.93;;;15.90;99.90;;;;;;4969873;28;20023;-85
2021/08/05 10:15:24;;;;;;;8.73;7.57;;;15.80;99.90;;;;;;4961297;28;20500;-84
2021/08/05 10:17:55;;;;;;;10.07;8.68;;;15.80;99.90;;;;;;4969930;28;20538;-84
2021/08/05 10:20:22;;;;;;;8.95;7.97;;;15.90;99.90;;;;;;4985802;28;20386;-84
2021/08/05 10:22:49;;;;;;;7.85;7.05;;;15.80;99.90;;;;;;4979750;28;20039;-83
2021/08/05 10:25:17;;;;;;;9.63;8.73;;;15.80;99.90;;;;;;4978748;28;20031;-83
2021/08/05 10:27:43;;;;;;;9.25;8.25;;;15.90;99.90;;;;;;4984312;28;20019;-85
2021/08/05 10:30:14;;;;;;;9.68;8.52;;;15.90;99.90;;;;;;4970577;28;20504;-85
2021/08/05 10:32:40;;;;;;;9.10;8.20;;;15.90;99.90;;;;;;4970807;28;20102;-85
2021/08/05 10:35:11;;;;;;;9.60;8.65;;;16.00;99.90;;;;;;4985306;28;20042;-85
2021/08/05 10:37:37;;;;;;;8.32;7.50;;;16.00;99.90;;;;;;4970612;28;20039;-85
2021/08/05 10:40:05;;;;;;;8.70;7.80;;;15.90;99.90;;;;;;4968474;28;20023;-86
2021/08/05 10:42:31;;;;;;;8.20;7.32;;;15.90;99.90;;;;;;4968386;28;20065;-85
2021/08/05 10:44:57;;;;;;;8.80;7.90;;;15.90;99.90;;;;;;4964191;28;20380;-85
2021/08/05 10:47:26;;;;;;;10.52;8.55;;;16.00;99.90;;;;;;4970529;28;20038;-85
2021/08/05 10:49:55;;;;;;;8.73;7.45;;;16.00;99.90;;;;;;4968750;28;20034;-86
2021/08/05 10:52:44;;;;;;;7.43;6.53;;;16.00;99.90;;;;;;4967902;28;20480;-85
2021/08/05 10:55:16;;;;;;;9.38;7.32;;;15.90;99.90;;;;;;4984378;28;20117;-85
2021/08/05 10:57:43;;;;;;;9.23;8.17;;;16.00;99.90;;;;;;4984112;28;20157;-85
2021/08/05 11:00:14;;;;;;;8.27;7.32;;;16.00;99.90;;;;;;4984918;28;20262;-85
2021/08/05 11:02:47;;;;;;;8.10;7.30;;;16.00;99.90;;;;;;4984923;28;20548;-85
2021/08/05 11:05:36;;;;;;;6.85;6.25;;;16.10;99.90;;;;;;4984947;28;20392;-86
2021/08/05 11:08:08;;;;;;;8.65;7.30;;;16.10;99.90;;;;;;4974630;28;20363;-86
2021/08/05 11:10:36;;;;;;;8.00;7.20;;;16.10;99.90;;;;;;4983820;28;20034;-85
2021/08/05 11:13:08;;;;;;;6.55;5.95;;;16.20;99.90;;;;;;4969054;28;20053;-86
2021/08/05 11:15:34;;;;;;;7.80;6.43;;;16.20;99.90;;;;;;4974152;28;20081;-85
2021/08/05 11:20:42;;;;;;;6.18;5.57;;;16.30;99.90;;;;;;4950319;28;20454;-85
2021/08/05 11:23:37;;;;;;;7.40;6.30;;;16.30;99.90;;;;;;4945639;29;20065;-85
2021/08/05 11:26:05;;;;;;;6.40;5.80;;;16.40;99.90;;;;;;4969903;28;20066;-84
2021/08/05 11:28:45;;;;;;;6.47;4.93;;;16.40;99.90;;;;;;4967924;28;20031;-85
2021/08/05 11:31:23;;;;;;;5.40;4.90;;;16.30;99.90;;;;;;4984243;28;20034;-85
2021/08/05 11:33:52;;;;;;;4.78;4.30;;;16.30;99.90;;;;;;4965184;28;20038;-85
2021/08/05 11:36:23;;;;;;;5.30;4.80;;;16.30;99.90;;;;;;4969110;28;20062;-86
2021/08/05 11:39:15;;;;;;;5.47;4.97;;;16.30;99.90;;;;;;4966021;28;20034;-86
2021/08/05 11:41:46;;;;;;;6.40;5.05;;;16.30;99.90;;;;;;4966387;28;20038;-85
2021/08/05 11:44:40;;;;;;;5.18;4.78;;;16.30;99.90;;;;;;4950664;28;20039;-85
2021/08/05 11:47:06;;;;;;;4.90;4.50;;;16.30;99.90;;;;;;4948205;28;20036;-86
2021/08/05 11:49:36;;;;;;;5.05;4.65;;;16.30;99.90;;;;;;4964916;28;20024;-85
2021/08/05 11:52:31;;;;;;;5.60;5.00;;;16.20;99.90;;;;;;4948420;28;20066;-88
2021/08/05 11:55:00;;;;;;;5.20;4.70;;;16.30;99.90;;;;;;4947534;28;20027;-85
2021/08/05 11:57:28;;;;;;;5.47;4.97;;;16.20;99.90;;;;;;4949257;28;20397;-86
2021/08/05 11:59:56;;;;;;;5.22;4.78;;;16.30;99.90;;;;;;4949153;29;20389;-85
2021/08/05 12:02:24;;;;;;;5.55;5.05;;;16.20;99.90;;;;;;4947843;28;20497;-85
2021/08/05 12:04:53;;;;;;;18.35;5.40;;;16.30;99.90;;;;;;4948012;28;20115;-85
2021/08/05 12:07:27;;;;;;;4.55;4.15;;;16.30;99.90;;;;;;4967885;28;20054;-85
2021/08/05 12:10:02;;;;;;;4.75;4.35;;;16.30;99.90;;;;;;4967288;28;20033;-84
2021/08/05 12:12:34;;;;;;;5.25;4.75;;;16.20;99.90;;;;;;4982451;28;20492;-85
2021/08/05 12:15:00;;;;;;;5.20;4.70;;;16.20;99.90;;;;;;4949151;29;20109;-85
2021/08/05 12:17:30;;;;;;;5.43;4.93;;;16.20;99.90;;;;;;4948745;28;20067;-85
2021/08/05 12:19:56;;;;;;;5.65;5.15;;;16.20;99.90;;;;;;4953187;29;20081;-84
2021/08/05 12:22:36;;;;;;;6.32;5.72;;;16.10;99.90;;;;;;4945407;28;20043;-84
2021/08/05 12:25:05;;;;;;;7.55;6.25;;;16.20;99.90;;;;;;4950505;29;20535;-83
2021/08/05 12:27:33;;;;;;;6.28;5.72;;;16.20;99.90;;;;;;4951966;28;20465;-84
2021/08/05 12:30:09;;;;;;;6.65;5.53;;;16.10;99.90;;;;;;4952408;29;20542;-84
2021/08/05 12:32:55;;;;;;;6.97;6.28;;;16.20;99.90;;;;;;4952181;28;20051;-85
2021/08/05 12:35:20;;;;;;;7.57;6.88;;;16.10;99.90;;;;;;4953233;28;20061;-84
2021/08/05 12:38:04;;;;;;;7.57;6.20;;;16.20;99.90;;;;;;4959798;28;20049;-83
2021/08/05 12:40:31;;;;;;;6.85;6.25;;;16.10;99.90;;;;;;4957022;28;20384;-83
2021/08/05 12:43:00;;;;;;;8.07;7.28;;;16.10;99.90;;;;;;4966722;28;20404;-83